createdAt,value
2023-06-07T00:00:46.191Z,15.09
2023-06-07T00:03:37.450Z,15.01
2023-06-07T00:06:06.094Z,14.94
2023-06-07T00:08:33.092Z,14.90
2023-06-07T00:11:00.041Z,14.85
2023-06-07T00:13:26.957Z,14.82
2023-06-07T00:15:53.905Z,14.82
2023-06-07T00:18:21.081Z,14.81
2023-06-07T00:20:49.727Z,14.80
2023-06-07T00:23:17.311Z,14.78
2023-06-07T00:25:44.453Z,14.77
2023-06-07T00:28:11.510Z,14.75
2023-06-07T00:30:39.406Z,14.73
2023-06-07T00:33:06.360Z,14.70
2023-06-07T00:35:33.425Z,14.66
2023-06-07T00:38:00.474Z,14.60
2023-06-07T00:40:27.431Z,14.55
2023-06-07T00:42:54.417Z,14.48
2023-06-07T00:45:21.375Z,14.43
2023-06-07T00:47:48.453Z,14.38
2023-06-07T00:50:15.833Z,14.34
2023-06-07T00:52:42.865Z,14.31
2023-06-07T00:55:11.640Z,14.24
2023-06-07T00:57:39.010Z,14.16
2023-06-07T01:00:07.694Z,14.09
2023-06-07T01:02:35.663Z,14.04
2023-06-07T01:05:03.201Z,13.99
2023-06-07T01:07:30.331Z,13.91
2023-06-07T01:09:57.240Z,13.85
2023-06-07T01:12:24.480Z,13.80
2023-06-07T01:14:51.580Z,13.74
2023-06-07T01:17:19.149Z,13.66
2023-06-07T01:19:52.428Z,13.57
2023-06-07T01:22:27.678Z,13.50
2023-06-07T01:24:56.625Z,13.42
2023-06-07T01:27:27.743Z,13.34
2023-06-07T01:29:55.867Z,13.25
2023-06-07T01:32:23.702Z,13.16
2023-06-07T01:34:51.603Z,13.07
2023-06-07T01:37:19.953Z,12.96
2023-06-07T01:39:47.590Z,12.86
2023-06-07T01:42:15.717Z,12.73
2023-06-07T01:44:44.510Z,12.62
2023-06-07T01:47:13.346Z,12.52
2023-06-07T01:49:40.387Z,12.47
2023-06-07T01:52:07.579Z,12.43
2023-06-07T01:54:35.128Z,12.38
2023-06-07T01:57:20.789Z,12.30
2023-06-07T02:00:15.731Z,12.23
2023-06-07T02:02:59.065Z,12.14
2023-06-07T02:05:32.115Z,12.08
2023-06-07T02:08:04.352Z,12.05
2023-06-07T02:10:35.568Z,12.01
2023-06-07T02:13:04.159Z,11.94
2023-06-07T02:15:31.082Z,11.89
2023-06-07T02:18:01.808Z,11.83
2023-06-07T02:20:29.746Z,11.77
2023-06-07T02:22:57.496Z,11.73
2023-06-07T02:25:25.534Z,11.70
2023-06-07T02:27:53.537Z,11.66
2023-06-07T02:30:20.959Z,11.63
2023-06-07T02:32:50.670Z,11.62
2023-06-07T02:35:18.670Z,11.62
2023-06-07T02:37:48.925Z,11.64
2023-06-07T02:40:16.094Z,11.64
2023-06-07T02:42:46.850Z,11.67
2023-06-07T02:45:15.347Z,11.73
2023-06-07T02:47:43.219Z,11.81
2023-06-07T02:50:10.907Z,11.88
2023-06-07T02:52:38.321Z,11.96
2023-06-07T02:55:06.919Z,12.05
2023-06-07T02:57:33.930Z,12.13
2023-06-07T03:00:01.589Z,12.20
2023-06-07T03:02:39.073Z,12.28
2023-06-07T03:05:07.974Z,12.38
2023-06-07T03:07:35.745Z,12.46
2023-06-07T03:10:04.835Z,12.52
2023-06-07T03:12:32.526Z,12.57
2023-06-07T03:14:59.610Z,12.65
2023-06-07T03:17:27.538Z,12.74
2023-06-07T03:19:57.367Z,12.83
2023-06-07T03:22:25.394Z,12.91
2023-06-07T03:24:54.682Z,13.00
2023-06-07T03:27:24.560Z,13.09
2023-06-07T03:29:53.134Z,13.16
2023-06-07T03:32:20.667Z,13.24
2023-06-07T03:34:48.035Z,13.32
2023-06-07T03:37:15.540Z,13.39
2023-06-07T03:39:43.082Z,13.45
2023-06-07T03:42:10.694Z,13.51
2023-06-07T03:44:38.777Z,13.55
2023-06-07T03:47:06.061Z,13.61
2023-06-07T03:49:33.257Z,13.67
2023-06-07T03:52:00.245Z,13.71
2023-06-07T03:54:27.460Z,13.76
2023-06-07T03:56:54.501Z,13.81
2023-06-07T03:59:21.580Z,13.87
2023-06-07T04:01:49.845Z,13.94
2023-06-07T04:04:16.996Z,14.03
2023-06-07T04:06:43.984Z,14.12
2023-06-07T04:09:11.337Z,14.24
2023-06-07T04:11:38.437Z,14.37
2023-06-07T04:14:05.564Z,14.53
2023-06-07T04:16:32.639Z,14.72
2023-06-07T04:19:02.114Z,14.88
2023-06-07T04:21:31.653Z,15.09
2023-06-07T04:23:58.686Z,15.26
2023-06-07T04:26:26.503Z,15.43
2023-06-07T04:28:57.084Z,15.60
2023-06-07T04:31:29.762Z,15.74
2023-06-07T04:33:58.583Z,15.87
2023-06-07T04:36:25.941Z,15.99
2023-06-07T04:39:02.605Z,16.13
2023-06-07T04:41:33.476Z,16.27
2023-06-07T04:44:01.946Z,16.42
2023-06-07T04:46:32.319Z,16.52
2023-06-07T04:49:00.857Z,16.65
2023-06-07T04:51:30.385Z,16.78
2023-06-07T04:54:01.638Z,16.91
2023-06-07T04:56:31.083Z,17.02
2023-06-07T04:58:59.543Z,17.10
2023-06-07T05:01:29.124Z,17.17
2023-06-07T05:04:02.222Z,17.22
2023-06-07T05:06:38.104Z,17.28
2023-06-07T05:09:06.165Z,17.35
2023-06-07T05:11:33.340Z,17.43
2023-06-07T05:14:01.121Z,17.58
2023-06-07T05:16:28.524Z,17.68
2023-06-07T05:18:57.208Z,17.79
2023-06-07T05:21:24.415Z,17.91
2023-06-07T05:23:51.678Z,18.02
2023-06-07T05:26:18.874Z,18.15
2023-06-07T05:28:46.744Z,18.27
2023-06-07T05:31:13.924Z,18.35
2023-06-07T05:33:41.293Z,18.47
2023-06-07T05:36:08.443Z,18.53
2023-06-07T05:38:36.087Z,18.59
2023-06-07T05:41:03.123Z,18.67
2023-06-07T05:43:30.308Z,18.76
2023-06-07T05:45:57.331Z,18.83
2023-06-07T05:48:24.614Z,18.95
2023-06-07T05:50:52.718Z,19.04
2023-06-07T05:53:20.502Z,19.10
2023-06-07T05:55:48.618Z,19.18
2023-06-07T05:58:15.649Z,19.22
2023-06-07T06:00:44.785Z,19.29
2023-06-07T06:03:12.024Z,19.41
2023-06-07T06:05:39.318Z,19.52
2023-06-07T06:08:06.457Z,19.65
2023-06-07T06:10:35.807Z,19.71
2023-06-07T06:13:03.213Z,19.83
2023-06-07T06:15:30.369Z,19.93
2023-06-07T06:17:57.740Z,20.03
2023-06-07T06:20:24.868Z,20.13
2023-06-07T06:22:51.890Z,20.30
2023-06-07T06:25:18.901Z,20.44
2023-06-07T06:27:46.082Z,20.58
2023-06-07T06:30:13.105Z,20.76
2023-06-07T06:32:40.766Z,20.93
2023-06-07T06:35:08.181Z,21.07
2023-06-07T06:37:35.236Z,21.16
2023-06-07T06:40:02.682Z,21.13
2023-06-07T06:42:29.998Z,21.15
2023-06-07T06:45:11.038Z,21.12
2023-06-07T06:47:41.944Z,21.17
2023-06-07T06:50:30.405Z,21.04
2023-06-07T06:52:59.169Z,21.08
2023-06-07T06:55:26.108Z,21.20
2023-06-07T06:57:53.087Z,21.23
2023-06-07T07:00:20.370Z,21.16
2023-06-07T07:02:47.554Z,21.20
2023-06-07T07:05:15.962Z,21.21
2023-06-07T07:07:42.833Z,21.27
2023-06-07T07:10:09.957Z,21.22
2023-06-07T07:12:39.475Z,21.09
2023-06-07T07:15:06.891Z,21.26
2023-06-07T07:17:34.142Z,21.29
2023-06-07T07:20:01.190Z,21.36
2023-06-07T07:22:29.206Z,21.36
2023-06-07T07:24:58.764Z,21.47
2023-06-07T07:27:25.778Z,21.60
2023-06-07T07:29:52.662Z,21.72
2023-06-07T07:32:19.606Z,21.93
2023-06-07T07:34:46.740Z,22.01
2023-06-07T07:37:14.932Z,22.16
2023-06-07T07:39:41.985Z,22.26
2023-06-07T07:42:09.066Z,22.31
2023-06-07T07:44:36.134Z,22.33
2023-06-07T07:47:06.105Z,22.34
2023-06-07T07:49:35.976Z,22.39
2023-06-07T07:52:03.958Z,22.26
2023-06-07T07:54:31.157Z,22.25
2023-06-07T07:56:58.146Z,22.21
2023-06-07T07:59:25.194Z,22.19
2023-06-07T08:01:52.453Z,22.20
2023-06-07T08:04:19.447Z,22.05
2023-06-07T08:06:46.584Z,22.15
2023-06-07T08:09:14.878Z,22.34
2023-06-07T08:11:42.003Z,22.52
2023-06-07T08:14:08.936Z,22.48
2023-06-07T08:16:35.947Z,22.59
2023-06-07T08:19:04.706Z,22.59
2023-06-07T08:21:36.767Z,22.59
2023-06-07T08:24:04.453Z,22.62
2023-06-07T08:26:31.496Z,22.42
2023-06-07T08:28:58.492Z,22.28
2023-06-07T08:31:27.777Z,22.38
2023-06-07T08:33:54.996Z,22.51
2023-06-07T08:36:22.597Z,22.57
2023-06-07T08:38:49.678Z,22.72
2023-06-07T08:41:16.824Z,22.96
2023-06-07T08:43:44.657Z,22.90
2023-06-07T08:46:12.779Z,22.91
2023-06-07T08:48:40.517Z,22.98
2023-06-07T08:51:09.139Z,23.10
2023-06-07T08:53:55.145Z,23.11
2023-06-07T08:56:23.351Z,23.34
2023-06-07T08:58:51.018Z,23.43
2023-06-07T09:01:21.289Z,23.59
2023-06-07T09:03:54.546Z,23.65
2023-06-07T09:06:22.876Z,23.71
2023-06-07T09:08:50.499Z,23.85
2023-06-07T09:11:17.434Z,24.00
2023-06-07T09:13:44.916Z,24.09
2023-06-07T09:16:11.979Z,24.23
2023-06-07T09:18:43.485Z,24.42
2023-06-07T09:21:26.993Z,24.65
2023-06-07T09:23:56.350Z,24.95
2023-06-07T09:26:23.896Z,25.28
2023-06-07T09:28:51.230Z,25.48
2023-06-07T09:31:34.032Z,25.59
2023-06-07T09:34:23.118Z,25.68
2023-06-07T09:36:53.927Z,25.70
2023-06-07T09:39:28.127Z,25.68
2023-06-07T09:41:56.486Z,25.95
2023-06-07T09:44:30.852Z,26.01
2023-06-07T09:47:01.985Z,25.91
2023-06-07T09:49:34.854Z,25.86
2023-06-07T09:52:02.964Z,25.97
2023-06-07T09:54:43.825Z,26.06
2023-06-07T09:57:27.713Z,25.90
2023-06-07T10:00:14.473Z,25.80
2023-06-07T10:02:43.017Z,25.43
2023-06-07T10:05:13.343Z,25.12
2023-06-07T10:07:46.204Z,25.00
2023-06-07T10:10:19.247Z,24.90
2023-06-07T10:12:47.394Z,24.78
2023-06-07T10:15:16.584Z,25.19
2023-06-07T10:17:58.489Z,25.28
2023-06-07T10:20:27.664Z,25.38
2023-06-07T10:23:02.903Z,25.57
2023-06-07T10:25:35.554Z,25.76
2023-06-07T10:28:19.802Z,26.08
2023-06-07T10:31:04.680Z,26.05
2023-06-07T10:33:33.908Z,26.18
2023-06-07T10:36:00.800Z,26.00
2023-06-07T10:38:31.550Z,25.98
2023-06-07T10:40:59.385Z,25.89
2023-06-07T10:43:30.646Z,25.94
2023-06-07T10:46:23.916Z,26.16
2023-06-07T10:48:52.191Z,26.51
2023-06-07T10:51:41.831Z,26.52
2023-06-07T10:54:08.771Z,26.36
2023-06-07T10:56:37.025Z,26.44
2023-06-07T10:59:16.782Z,26.60
2023-06-07T11:01:46.747Z,26.69
2023-06-07T11:04:34.660Z,26.82
2023-06-07T11:07:33.210Z,26.91
2023-06-07T11:10:00.683Z,27.02
2023-06-07T11:12:36.976Z,26.73
2023-06-07T11:15:36.419Z,26.40
2023-06-07T11:18:15.679Z,26.61
2023-06-07T11:20:45.743Z,26.95
2023-06-07T11:23:32.415Z,26.87
2023-06-07T11:26:18.049Z,26.58
2023-06-07T11:28:45.617Z,26.95
2023-06-07T11:31:13.479Z,27.41
2023-06-07T11:33:41.617Z,27.60
2023-06-07T11:36:10.100Z,27.73
2023-06-07T11:38:38.327Z,27.83
2023-06-07T11:41:06.561Z,27.66
2023-06-07T11:43:33.745Z,27.74
2023-06-07T11:46:01.178Z,27.74
2023-06-07T11:48:29.563Z,27.84
2023-06-07T11:50:57.784Z,28.02
2023-06-07T11:53:29.116Z,28.10
2023-06-07T11:55:56.676Z,27.85
2023-06-07T11:58:25.400Z,27.66
2023-06-07T12:00:53.335Z,27.56
2023-06-07T12:03:23.426Z,27.42
2023-06-07T12:05:51.642Z,27.14
2023-06-07T12:08:19.124Z,26.46
2023-06-07T12:10:54.412Z,26.81
2023-06-07T12:13:22.500Z,26.90
2023-06-07T12:15:52.325Z,27.51
2023-06-07T12:18:20.624Z,28.24
2023-06-07T12:20:48.357Z,28.31
2023-06-07T12:23:20.773Z,28.22
2023-06-07T12:25:48.527Z,28.08
2023-06-07T12:28:15.541Z,27.68
2023-06-07T12:30:48.175Z,27.15
2023-06-07T12:33:15.814Z,26.68
2023-06-07T12:35:49.576Z,26.34
2023-06-07T12:38:16.605Z,26.09
2023-06-07T12:40:43.690Z,26.30
2023-06-07T12:43:10.633Z,26.20
2023-06-07T12:45:37.862Z,26.44
2023-06-07T12:48:05.288Z,26.65
2023-06-07T12:50:32.932Z,26.85
2023-06-07T12:53:00.269Z,26.82
2023-06-07T12:55:27.256Z,26.47
2023-06-07T12:57:54.123Z,26.22
2023-06-07T13:00:21.577Z,25.79
2023-06-07T13:02:48.679Z,25.80
2023-06-07T13:05:15.873Z,25.77
2023-06-07T13:07:42.847Z,25.81
2023-06-07T13:10:11.238Z,25.90
2023-06-07T13:12:39.324Z,26.00
2023-06-07T13:15:06.730Z,26.03
2023-06-07T13:17:34.633Z,26.22
2023-06-07T13:20:01.666Z,26.21
2023-06-07T13:22:31.891Z,25.86
2023-06-07T13:24:59.453Z,26.10
2023-06-07T13:27:27.561Z,26.25
2023-06-07T13:29:55.815Z,26.31
2023-06-07T13:32:23.098Z,26.27
2023-06-07T13:34:50.258Z,26.20
2023-06-07T13:37:17.296Z,26.22
2023-06-07T13:39:44.371Z,26.22
2023-06-07T13:42:11.916Z,26.47
2023-06-07T13:44:40.105Z,26.44
2023-06-07T13:47:08.343Z,26.59
2023-06-07T13:49:36.069Z,26.34
2023-06-07T13:52:03.714Z,26.49
2023-06-07T13:54:32.410Z,26.28
2023-06-07T13:56:59.997Z,25.98
2023-06-07T13:59:28.598Z,25.84
2023-06-07T14:01:59.769Z,25.90
2023-06-07T14:04:27.748Z,26.02
2023-06-07T14:06:54.822Z,26.02
2023-06-07T14:09:21.924Z,25.84
2023-06-07T14:11:49.034Z,25.74
2023-06-07T14:14:16.126Z,25.57
2023-06-07T14:16:43.107Z,25.28
2023-06-07T14:19:10.345Z,25.19
2023-06-07T14:21:38.027Z,25.02
2023-06-07T14:24:05.452Z,24.90
2023-06-07T14:26:32.451Z,24.74
2023-06-07T14:28:59.447Z,24.65
2023-06-07T14:31:26.507Z,24.77
2023-06-07T14:33:53.722Z,24.81
2023-06-07T14:36:21.032Z,24.86
2023-06-07T14:38:48.051Z,24.92
2023-06-07T14:41:15.399Z,25.01
2023-06-07T14:43:42.404Z,25.00
2023-06-07T14:46:09.454Z,25.06
2023-06-07T14:48:36.661Z,25.10
2023-06-07T14:51:03.763Z,25.12
2023-06-07T14:53:30.766Z,25.05
2023-06-07T14:55:57.741Z,24.92
2023-06-07T14:58:24.684Z,24.82
2023-06-07T15:00:52.043Z,24.75
2023-06-07T15:03:20.141Z,24.45
2023-06-07T15:05:47.313Z,23.99
2023-06-07T15:08:14.216Z,24.13
2023-06-07T15:10:41.275Z,24.24
2023-06-07T15:13:08.218Z,24.26
2023-06-07T15:15:36.361Z,24.24
2023-06-07T15:18:03.411Z,24.14
2023-06-07T15:20:30.406Z,24.20
2023-06-07T15:22:57.652Z,24.14
2023-06-07T15:25:26.232Z,24.16
2023-06-07T15:27:53.156Z,24.19
2023-06-07T15:30:20.144Z,24.21
2023-06-07T15:32:47.178Z,24.18
2023-06-07T15:35:14.235Z,24.20
2023-06-07T15:37:41.545Z,24.20
2023-06-07T15:40:09.081Z,24.15
2023-06-07T15:42:37.153Z,24.13
2023-06-07T15:45:05.784Z,24.09
2023-06-07T15:47:32.868Z,24.08
2023-06-07T15:50:00.420Z,24.06
2023-06-07T15:52:27.613Z,24.05
2023-06-07T15:54:54.570Z,24.00
2023-06-07T15:57:21.445Z,23.98
2023-06-07T15:59:48.397Z,23.97
2023-06-07T16:02:16.404Z,23.92
2023-06-07T16:04:43.402Z,23.89
2023-06-07T16:07:10.821Z,23.87
2023-06-07T16:09:37.791Z,23.82
2023-06-07T16:12:06.024Z,23.77
2023-06-07T16:14:33.004Z,23.69
2023-06-07T16:17:00.536Z,23.62
2023-06-07T16:19:27.552Z,23.60
2023-06-07T16:21:54.484Z,23.59
2023-06-07T16:24:21.374Z,23.59
2023-06-07T16:26:48.890Z,23.60
2023-06-07T16:29:15.876Z,23.62
2023-06-07T16:31:42.837Z,23.63
2023-06-07T16:34:09.815Z,23.63
2023-06-07T16:36:38.457Z,23.63
2023-06-07T16:39:08.876Z,23.63
2023-06-07T16:41:40.766Z,23.61
2023-06-07T16:44:08.688Z,23.64
2023-06-07T16:46:35.695Z,23.65
2023-06-07T16:49:03.192Z,23.65
2023-06-07T16:51:30.121Z,23.63
2023-06-07T16:53:57.137Z,23.62
2023-06-07T16:56:24.111Z,23.63
2023-06-07T16:58:51.152Z,23.60
2023-06-07T17:01:18.221Z,23.56
2023-06-07T17:03:45.275Z,23.51
2023-06-07T17:06:12.257Z,23.44
2023-06-07T17:08:39.245Z,23.38
2023-06-07T17:11:08.397Z,23.30
2023-06-07T17:13:36.176Z,23.21
2023-06-07T17:16:03.455Z,23.11
2023-06-07T17:18:30.578Z,23.03
2023-06-07T17:20:57.594Z,22.95
2023-06-07T17:23:24.508Z,22.87
2023-06-07T17:25:51.501Z,22.79
2023-06-07T17:28:18.465Z,22.74
2023-06-07T17:30:45.691Z,22.69
2023-06-07T17:33:12.756Z,22.65
2023-06-07T17:35:40.293Z,22.61
2023-06-07T17:38:07.384Z,22.58
2023-06-07T17:40:34.506Z,22.54
2023-06-07T17:43:01.881Z,22.47
2023-06-07T17:45:30.515Z,22.43
2023-06-07T17:47:57.709Z,22.36
2023-06-07T17:52:55.145Z,22.24
2023-06-07T17:55:22.332Z,22.17
2023-06-07T17:57:49.699Z,22.15
2023-06-07T18:00:17.164Z,22.09
2023-06-07T18:02:44.365Z,22.04
2023-06-07T18:05:11.716Z,22.02
2023-06-07T18:07:39.989Z,21.98
2023-06-07T18:10:08.369Z,21.94
2023-06-07T18:12:35.678Z,21.92
2023-06-07T18:15:03.238Z,21.88
2023-06-07T18:17:30.405Z,21.82
2023-06-07T18:19:57.555Z,21.79
2023-06-07T18:22:25.100Z,21.74
2023-06-07T18:24:52.533Z,21.69
2023-06-07T18:27:20.057Z,21.67
2023-06-07T18:29:47.940Z,21.66
2023-06-07T18:32:15.138Z,21.63
2023-06-07T18:34:42.418Z,21.59
2023-06-07T18:37:09.372Z,21.58
2023-06-07T18:39:36.710Z,21.54
2023-06-07T18:42:04.115Z,21.46
2023-06-07T18:44:32.127Z,21.37
2023-06-07T18:47:00.451Z,21.29
2023-06-07T18:49:27.702Z,21.21
2023-06-07T18:51:55.017Z,21.12
2023-06-07T18:54:23.028Z,21.01
2023-06-07T18:56:51.471Z,20.95
2023-06-07T18:59:19.468Z,20.88
2023-06-07T19:01:52.377Z,20.82
2023-06-07T19:04:20.105Z,20.77
2023-06-07T19:06:50.472Z,20.72
2023-06-07T19:09:18.661Z,20.67
2023-06-07T19:11:48.191Z,20.60
2023-06-07T19:14:16.610Z,20.55
2023-06-07T19:16:43.765Z,20.50
2023-06-07T19:19:12.006Z,20.44
2023-06-07T19:21:39.503Z,20.41
2023-06-07T19:24:08.243Z,20.39
2023-06-07T19:26:35.298Z,20.35
2023-06-07T19:29:03.591Z,20.29
2023-06-07T19:31:30.734Z,20.26
2023-06-07T19:33:59.061Z,20.23
2023-06-07T19:36:26.482Z,20.21
2023-06-07T19:38:54.312Z,20.15
2023-06-07T19:41:23.645Z,20.11
2023-06-07T19:43:50.959Z,20.06
2023-06-07T19:46:18.943Z,20.00
2023-06-07T19:48:46.811Z,19.94
2023-06-07T19:51:14.224Z,19.91
2023-06-07T19:53:44.942Z,19.86
2023-06-07T19:56:12.064Z,19.80
2023-06-07T19:58:39.249Z,19.76
2023-06-07T20:01:07.750Z,19.71
2023-06-07T20:03:34.740Z,19.66
2023-06-07T20:06:01.796Z,19.62
2023-06-07T20:08:28.777Z,19.56
2023-06-07T20:10:56.861Z,19.52
2023-06-07T20:13:23.852Z,19.49
2023-06-07T20:15:50.989Z,19.47
2023-06-07T20:18:18.099Z,19.44
2023-06-07T20:20:45.075Z,19.42
2023-06-07T20:23:12.022Z,19.38
2023-06-07T20:25:39.087Z,19.35
2023-06-07T20:28:07.158Z,19.29
2023-06-07T20:30:35.593Z,19.22
2023-06-07T20:33:02.623Z,19.13
2023-06-07T20:35:32.422Z,19.06
2023-06-07T20:38:00.629Z,18.99
2023-06-07T20:40:29.741Z,18.93
2023-06-07T20:42:56.716Z,18.86
2023-06-07T20:45:23.679Z,18.80
2023-06-07T20:47:51.297Z,18.74
2023-06-07T20:50:18.288Z,18.66
2023-06-07T20:52:45.994Z,18.59
2023-06-07T20:55:13.051Z,18.51
2023-06-07T20:57:40.328Z,18.43
2023-06-07T21:00:08.323Z,18.35
2023-06-07T21:02:36.299Z,18.30
2023-06-07T21:05:03.688Z,18.25
2023-06-07T21:07:30.836Z,18.20
2023-06-07T21:09:57.757Z,18.15
2023-06-07T21:12:24.762Z,18.11
2023-06-07T21:14:54.190Z,18.07
2023-06-07T21:17:22.132Z,18.02
2023-06-07T21:19:49.052Z,17.99
2023-06-07T21:22:16.110Z,17.95
2023-06-07T21:24:43.034Z,17.92
2023-06-07T21:27:10.589Z,17.85
2023-06-07T21:29:37.602Z,17.79
2023-06-07T21:32:05.254Z,17.73
2023-06-07T21:34:32.269Z,17.68
2023-06-07T21:36:59.229Z,17.61
2023-06-07T21:39:26.348Z,17.54
2023-06-07T21:41:53.997Z,17.45
2023-06-07T21:44:22.229Z,17.38
2023-06-07T21:46:51.412Z,17.32
2023-06-07T21:49:18.388Z,17.27
2023-06-07T21:51:45.587Z,17.20
2023-06-07T21:54:12.540Z,17.11
2023-06-07T21:56:41.690Z,16.99
2023-06-07T21:59:09.010Z,16.87
2023-06-07T22:01:36.417Z,16.74
2023-06-07T22:04:03.959Z,16.62
2023-06-07T22:06:30.950Z,16.48
2023-06-07T22:08:57.939Z,16.36
2023-06-07T22:11:24.945Z,16.21
2023-06-07T22:13:53.032Z,16.06
2023-06-07T22:16:21.299Z,15.91
2023-06-07T22:18:49.152Z,15.79
2023-06-07T22:21:16.157Z,15.66
2023-06-07T22:23:43.135Z,15.53
2023-06-07T22:26:11.599Z,15.42
2023-06-07T22:28:40.691Z,15.31
2023-06-07T22:31:07.753Z,15.22
2023-06-07T22:33:34.841Z,15.17
2023-06-07T22:36:04.197Z,15.12
2023-06-07T22:38:31.118Z,15.08
2023-06-07T22:40:58.216Z,15.09
2023-06-07T22:43:25.255Z,15.13
2023-06-07T22:45:52.269Z,15.17
2023-06-07T22:48:19.371Z,15.24
2023-06-07T22:50:47.885Z,15.32
2023-06-07T22:53:15.194Z,15.38
2023-06-07T22:55:42.454Z,15.45
2023-06-07T22:58:09.704Z,15.52
2023-06-07T23:00:36.897Z,15.56
2023-06-07T23:03:06.913Z,15.60
2023-06-07T23:05:34.923Z,15.66
2023-06-07T23:08:01.875Z,15.71
2023-06-07T23:10:35.423Z,15.76
2023-06-07T23:13:08.367Z,15.81
2023-06-07T23:15:37.960Z,15.83
2023-06-07T23:18:04.977Z,15.84
2023-06-07T23:20:33.328Z,15.82
2023-06-07T23:23:04.101Z,15.79
2023-06-07T23:25:32.013Z,15.73
2023-06-07T23:27:59.180Z,15.66
2023-06-07T23:30:26.772Z,15.61
2023-06-07T23:32:54.086Z,15.56
2023-06-07T23:35:21.524Z,15.49
2023-06-07T23:37:48.745Z,15.34
2023-06-07T23:40:16.722Z,15.17
2023-06-07T23:42:44.529Z,15.03
2023-06-07T23:45:13.992Z,14.88
2023-06-07T23:47:41.244Z,14.73
2023-06-07T23:50:09.470Z,14.57
2023-06-07T23:52:38.423Z,14.43
2023-06-07T23:55:06.035Z,14.26
2023-06-07T23:57:33.041Z,14.08
